sensor_id;sensor_type;location;lat;lon;timestamp;temperature;humidity
1055;DHT22;516;51.482;7.120;2024-02-23T00:02:46;16.00;1.00
1055;DHT22;516;51.482;7.120;2024-02-23T00:08:29;16.00;1.00
1055;DHT22;516;51.482;7.120;2024-02-23T00:14:17;16.00;1.00
1055;DHT22;516;51.482;7.120;2024-02-23T00:20:08;16.00;1.00
1055;DHT22;516;51.482;7.120;2024-02-23T00:25:57;16.00;1.00
1055;DHT22;516;51.482;7.120;2024-02-23T00:31:45;15.90;1.00
1055;DHT22;516;51.482;7.120;2024-02-23T00:37:33;15.90;1.00
1055;DHT22;516;51.482;7.120;2024-02-23T00:43:22;15.90;1.00
1055;DHT22;516;51.482;7.120;2024-02-23T00:49:11;15.90;1.00
1055;DHT22;516;51.482;7.120;2024-02-23T00:54:58;15.90;1.00
1055;DHT22;516;51.482;7.120;2024-02-23T01:00:47;15.90;1.00
1055;DHT22;516;51.482;7.120;2024-02-23T01:10:37;15.90;1.00
1055;DHT22;516;51.482;7.120;2024-02-23T01:16:24;15.90;1.00
1055;DHT22;516;51.482;7.120;2024-02-23T01:22:12;15.90;1.00
1055;DHT22;516;51.482;7.120;2024-02-23T01:27:59;15.90;1.00
1055;DHT22;516;51.482;7.120;2024-02-23T01:33:47;15.90;1.00
1055;DHT22;516;51.482;7.120;2024-02-23T01:39:37;15.90;1.00
1055;DHT22;516;51.482;7.120;2024-02-23T01:45:24;15.90;1.00
1055;DHT22;516;51.482;7.120;2024-02-23T01:51:12;15.90;1.00
1055;DHT22;516;51.482;7.120;2024-02-23T01:57:00;15.90;1.00
1055;DHT22;516;51.482;7.120;2024-02-23T02:02:48;15.90;1.00
1055;DHT22;516;51.482;7.120;2024-02-23T02:08:27;15.90;1.00
1055;DHT22;516;51.482;7.120;2024-02-23T02:14:15;15.90;1.00
1055;DHT22;516;51.482;7.120;2024-02-23T02:20:03;15.90;1.00
1055;DHT22;516;51.482;7.120;2024-02-23T02:25:55;15.90;1.00
1055;DHT22;516;51.482;7.120;2024-02-23T02:31:42;15.90;1.00
1055;DHT22;516;51.482;7.120;2024-02-23T02:37:30;15.90;1.00
1055;DHT22;516;51.482;7.120;2024-02-23T02:43:17;15.90;1.00
1055;DHT22;516;51.482;7.120;2024-02-23T02:49:05;15.90;1.00
1055;DHT22;516;51.482;7.120;2024-02-23T02:54:53;15.90;1.00
1055;DHT22;516;51.482;7.120;2024-02-23T03:00:40;15.90;1.00
1055;DHT22;516;51.482;7.120;2024-02-23T03:16:20;15.90;1.00
1055;DHT22;516;51.482;7.120;2024-02-23T03:22:10;15.90;1.00
1055;DHT22;516;51.482;7.120;2024-02-23T03:27:58;15.80;1.00
1055;DHT22;516;51.482;7.120;2024-02-23T03:33:27;15.90;1.00
1055;DHT22;516;51.482;7.120;2024-02-23T03:39:14;15.80;1.00
1055;DHT22;516;51.482;7.120;2024-02-23T03:45:03;15.80;1.00
1055;DHT22;516;51.482;7.120;2024-02-23T03:50:51;15.80;1.00
1055;DHT22;516;51.482;7.120;2024-02-23T03:56:42;15.80;1.00
1055;DHT22;516;51.482;7.120;2024-02-23T04:02:29;15.80;1.00
1055;DHT22;516;51.482;7.120;2024-02-23T04:08:17;15.90;1.00
1055;DHT22;516;51.482;7.120;2024-02-23T04:14:04;15.90;1.00
1055;DHT22;516;51.482;7.120;2024-02-23T04:19:52;15.80;1.00
1055;DHT22;516;51.482;7.120;2024-02-23T04:25:40;15.80;1.00
1055;DHT22;516;51.482;7.120;2024-02-23T04:31:28;15.80;1.00
1055;DHT22;516;51.482;7.120;2024-02-23T04:37:16;15.90;1.00
1055;DHT22;516;51.482;7.120;2024-02-23T04:43:04;15.80;1.00
1055;DHT22;516;51.482;7.120;2024-02-23T04:48:52;15.80;1.00
1055;DHT22;516;51.482;7.120;2024-02-23T04:54:39;15.80;1.00
1055;DHT22;516;51.482;7.120;2024-02-23T05:00:27;15.80;1.00
1055;DHT22;516;51.482;7.120;2024-02-23T05:16:20;15.80;1.00
1055;DHT22;516;51.482;7.120;2024-02-23T05:22:08;15.80;1.00
1055;DHT22;516;51.482;7.120;2024-02-23T05:27:56;15.80;1.00
1055;DHT22;516;51.482;7.120;2024-02-23T05:33:44;15.80;1.00
1055;DHT22;516;51.482;7.120;2024-02-23T05:39:31;15.80;1.00
1055;DHT22;516;51.482;7.120;2024-02-23T05:45:19;15.80;1.00
1055;DHT22;516;51.482;7.120;2024-02-23T05:51:06;15.80;1.00
1055;DHT22;516;51.482;7.120;2024-02-23T05:56:54;15.80;1.00
1055;DHT22;516;51.482;7.120;2024-02-23T06:02:42;15.80;1.00
1055;DHT22;516;51.482;7.120;2024-02-23T06:08:29;15.80;1.00
1055;DHT22;516;51.482;7.120;2024-02-23T06:14:16;15.80;1.00
1055;DHT22;516;51.482;7.120;2024-02-23T06:20:04;15.80;1.00
1055;DHT22;516;51.482;7.120;2024-02-23T06:25:52;15.80;1.00
1055;DHT22;516;51.482;7.120;2024-02-23T06:31:40;15.80;1.00
1055;DHT22;516;51.482;7.120;2024-02-23T06:37:28;15.80;1.00
1055;DHT22;516;51.482;7.120;2024-02-23T06:43:16;15.80;1.00
1055;DHT22;516;51.482;7.120;2024-02-23T06:49:04;15.80;1.00
1055;DHT22;516;51.482;7.120;2024-02-23T06:54:52;15.80;1.00
1055;DHT22;516;51.482;7.120;2024-02-23T07:00:40;15.80;1.00
1055;DHT22;516;51.482;7.120;2024-02-23T07:16:18;15.80;1.00
1055;DHT22;516;51.482;7.120;2024-02-23T07:22:05;15.80;1.00
1055;DHT22;516;51.482;7.120;2024-02-23T07:27:53;15.80;1.00
1055;DHT22;516;51.482;7.120;2024-02-23T07:33:42;15.80;1.00
1055;DHT22;516;51.482;7.120;2024-02-23T07:39:30;15.80;1.00
1055;DHT22;516;51.482;7.120;2024-02-23T07:45:18;15.80;1.00
1055;DHT22;516;51.482;7.120;2024-02-23T07:51:05;15.80;1.00
1055;DHT22;516;51.482;7.120;2024-02-23T07:56:53;15.80;1.00
1055;DHT22;516;51.482;7.120;2024-02-23T08:02:41;15.80;1.00
1055;DHT22;516;51.482;7.120;2024-02-23T08:08:30;15.80;1.00
1055;DHT22;516;51.482;7.120;2024-02-23T08:14:20;15.80;1.00
1055;DHT22;516;51.482;7.120;2024-02-23T08:20:08;15.80;1.00
1055;DHT22;516;51.482;7.120;2024-02-23T08:25:56;15.90;1.00
1055;DHT22;516;51.482;7.120;2024-02-23T08:31:45;15.90;1.00
1055;DHT22;516;51.482;7.120;2024-02-23T08:37:33;15.80;1.00
1055;DHT22;516;51.482;7.120;2024-02-23T08:43:21;15.80;1.00
1055;DHT22;516;51.482;7.120;2024-02-23T08:49:09;15.90;1.00
1055;DHT22;516;51.482;7.120;2024-02-23T08:54:57;15.90;1.00
1055;DHT22;516;51.482;7.120;2024-02-23T09:00:44;15.90;1.00
1055;DHT22;516;51.482;7.120;2024-02-23T09:10:31;15.80;1.00
1055;DHT22;516;51.482;7.120;2024-02-23T09:16:19;15.80;1.00
1055;DHT22;516;51.482;7.120;2024-02-23T09:22:07;15.80;1.00
1055;DHT22;516;51.482;7.120;2024-02-23T09:27:58;15.80;1.00
1055;DHT22;516;51.482;7.120;2024-02-23T09:33:28;15.80;1.00
1055;DHT22;516;51.482;7.120;2024-02-23T09:39:16;15.80;1.00
1055;DHT22;516;51.482;7.120;2024-02-23T09:45:05;16.00;1.00
1055;DHT22;516;51.482;7.120;2024-02-23T09:50:54;16.10;1.00
1055;DHT22;516;51.482;7.120;2024-02-23T09:56:44;16.00;1.00
1055;DHT22;516;51.482;7.120;2024-02-23T10:02:32;16.40;1.00
1055;DHT22;516;51.482;7.120;2024-02-23T10:08:20;16.80;1.00
1055;DHT22;516;51.482;7.120;2024-02-23T10:14:08;16.40;1.00
1055;DHT22;516;51.482;7.120;2024-02-23T10:19:56;16.20;1.00
1055;DHT22;516;51.482;7.120;2024-02-23T10:25:44;16.10;1.00
1055;DHT22;516;51.482;7.120;2024-02-23T10:31:34;16.10;1.00
1055;DHT22;516;51.482;7.120;2024-02-23T10:37:26;16.00;1.00
1055;DHT22;516;51.482;7.120;2024-02-23T10:43:19;16.00;1.00
1055;DHT22;516;51.482;7.120;2024-02-23T10:49:08;16.00;1.00
1055;DHT22;516;51.482;7.120;2024-02-23T10:54:57;16.00;1.00
1055;DHT22;516;51.482;7.120;2024-02-23T11:00:47;16.00;1.00
1055;DHT22;516;51.482;7.120;2024-02-23T11:10:34;16.10;1.00
1055;DHT22;516;51.482;7.120;2024-02-23T11:16:51;16.10;1.00
1055;DHT22;516;51.482;7.120;2024-02-23T11:22:39;16.00;1.00
1055;DHT22;516;51.482;7.120;2024-02-23T11:28:28;16.00;1.00
1055;DHT22;516;51.482;7.120;2024-02-23T11:34:26;15.90;1.00
1055;DHT22;516;51.482;7.120;2024-02-23T11:40:32;15.90;1.00
1055;DHT22;516;51.482;7.120;2024-02-23T11:46:21;15.90;1.00
1055;DHT22;516;51.482;7.120;2024-02-23T11:52:10;15.90;1.00
1055;DHT22;516;51.482;7.120;2024-02-23T11:57:57;15.90;1.00
1055;DHT22;516;51.482;7.120;2024-02-23T12:03:45;15.90;1.00
1055;DHT22;516;51.482;7.120;2024-02-23T12:12:54;15.90;1.00
1055;DHT22;516;51.482;7.120;2024-02-23T12:18:43;15.90;1.00
1055;DHT22;516;51.482;7.120;2024-02-23T12:24:30;15.90;1.00
1055;DHT22;516;51.482;7.120;2024-02-23T12:30:18;15.90;1.00
1055;DHT22;516;51.482;7.120;2024-02-23T12:36:07;15.90;1.00
1055;DHT22;516;51.482;7.120;2024-02-23T12:41:55;15.90;1.00
1055;DHT22;516;51.482;7.120;2024-02-23T12:47:44;15.90;1.00
1055;DHT22;516;51.482;7.120;2024-02-23T12:59:23;15.90;1.00
1055;DHT22;516;51.482;7.120;2024-02-23T13:05:11;15.90;1.00
1055;DHT22;516;51.482;7.120;2024-02-23T13:10:41;15.90;1.00
1055;DHT22;516;51.482;7.120;2024-02-23T13:16:29;15.90;1.00
1055;DHT22;516;51.482;7.120;2024-02-23T13:22:17;15.90;1.00
1055;DHT22;516;51.482;7.120;2024-02-23T13:28:05;15.90;1.00
1055;DHT22;516;51.482;7.120;2024-02-23T13:33:52;15.90;1.00
1055;DHT22;516;51.482;7.120;2024-02-23T13:39:40;15.90;1.00
1055;DHT22;516;51.482;7.120;2024-02-23T13:45:28;15.90;1.00
1055;DHT22;516;51.482;7.120;2024-02-23T13:51:15;15.90;1.00
1055;DHT22;516;51.482;7.120;2024-02-23T13:57:03;15.80;1.00
1055;DHT22;516;51.482;7.120;2024-02-23T14:02:51;15.80;1.00
1055;DHT22;516;51.482;7.120;2024-02-23T14:18:38;15.90;1.00
1055;DHT22;516;51.482;7.120;2024-02-23T14:24:29;15.90;1.00
1055;DHT22;516;51.482;7.120;2024-02-23T14:30:17;15.90;1.00
1055;DHT22;516;51.482;7.120;2024-02-23T14:36:05;15.90;1.00
1055;DHT22;516;51.482;7.120;2024-02-23T14:41:53;15.90;1.00
1055;DHT22;516;51.482;7.120;2024-02-23T14:47:41;15.90;1.00
1055;DHT22;516;51.482;7.120;2024-02-23T14:53:12;15.90;1.00
1055;DHT22;516;51.482;7.120;2024-02-23T14:58:59;15.90;1.00
1055;DHT22;516;51.482;7.120;2024-02-23T15:04:49;15.90;1.00
1055;DHT22;516;51.482;7.120;2024-02-23T15:10:36;15.90;1.00
1055;DHT22;516;51.482;7.120;2024-02-23T15:16:27;15.90;1.00
1055;DHT22;516;51.482;7.120;2024-02-23T15:22:15;15.90;1.00
1055;DHT22;516;51.482;7.120;2024-02-23T15:28:05;15.90;1.00
1055;DHT22;516;51.482;7.120;2024-02-23T15:33:52;15.90;1.00
1055;DHT22;516;51.482;7.120;2024-02-23T15:39:40;15.90;1.00
1055;DHT22;516;51.482;7.120;2024-02-23T15:45:28;15.90;1.00
1055;DHT22;516;51.482;7.120;2024-02-23T15:51:16;15.80;1.00
1055;DHT22;516;51.482;7.120;2024-02-23T15:57:03;15.90;1.00
1055;DHT22;516;51.482;7.120;2024-02-23T16:02:51;15.90;1.00
1055;DHT22;516;51.482;7.120;2024-02-23T16:18:36;15.80;1.00
1055;DHT22;516;51.482;7.120;2024-02-23T16:24:26;15.90;1.00
1055;DHT22;516;51.482;7.120;2024-02-23T16:30:14;15.80;1.00
1055;DHT22;516;51.482;7.120;2024-02-23T16:36:01;15.80;1.00
1055;DHT22;516;51.482;7.120;2024-02-23T16:41:49;15.80;1.00
1055;DHT22;516;51.482;7.120;2024-02-23T16:47:37;15.80;1.00
1055;DHT22;516;51.482;7.120;2024-02-23T16:53:24;15.80;1.00
1055;DHT22;516;51.482;7.120;2024-02-23T16:59:12;15.80;1.00
1055;DHT22;516;51.482;7.120;2024-02-23T17:05:00;15.80;1.00
1055;DHT22;516;51.482;7.120;2024-02-23T17:10:44;15.80;1.00
1055;DHT22;516;51.482;7.120;2024-02-23T17:16:32;15.80;1.00
1055;DHT22;516;51.482;7.120;2024-02-23T17:22:19;15.70;1.00
1055;DHT22;516;51.482;7.120;2024-02-23T17:28:08;15.80;1.00
1055;DHT22;516;51.482;7.120;2024-02-23T17:33:56;15.80;1.00
1055;DHT22;516;51.482;7.120;2024-02-23T17:39:44;15.70;1.00
1055;DHT22;516;51.482;7.120;2024-02-23T17:45:31;15.80;1.00
1055;DHT22;516;51.482;7.120;2024-02-23T17:51:19;15.70;1.00
1055;DHT22;516;51.482;7.120;2024-02-23T17:57:07;15.70;1.00
1055;DHT22;516;51.482;7.120;2024-02-23T18:02:56;15.70;1.00
1055;DHT22;516;51.482;7.120;2024-02-23T18:18:34;15.70;1.00
1055;DHT22;516;51.482;7.120;2024-02-23T18:24:22;15.70;1.00
1055;DHT22;516;51.482;7.120;2024-02-23T18:30:10;15.70;1.00
1055;DHT22;516;51.482;7.120;2024-02-23T18:35:58;15.80;1.00
1055;DHT22;516;51.482;7.120;2024-02-23T18:41:46;15.70;1.00
1055;DHT22;516;51.482;7.120;2024-02-23T18:47:34;15.70;1.00
1055;DHT22;516;51.482;7.120;2024-02-23T18:53:21;15.70;1.00
1055;DHT22;516;51.482;7.120;2024-02-23T18:59:09;15.70;1.00
1055;DHT22;516;51.482;7.120;2024-02-23T19:04:57;15.70;1.00
1055;DHT22;516;51.482;7.120;2024-02-23T19:10:44;15.70;1.00
1055;DHT22;516;51.482;7.120;2024-02-23T19:16:32;15.70;1.00
1055;DHT22;516;51.482;7.120;2024-02-23T19:22:20;15.70;1.00
1055;DHT22;516;51.482;7.120;2024-02-23T19:28:07;15.70;1.00
1055;DHT22;516;51.482;7.120;2024-02-23T19:33:55;15.70;1.00
1055;DHT22;516;51.482;7.120;2024-02-23T19:39:45;15.70;1.00
1055;DHT22;516;51.482;7.120;2024-02-23T19:45:32;15.70;1.00
1055;DHT22;516;51.482;7.120;2024-02-23T19:51:20;15.70;1.00
1055;DHT22;516;51.482;7.120;2024-02-23T19:57:07;15.70;1.00
1055;DHT22;516;51.482;7.120;2024-02-23T20:02:55;15.70;1.00
1055;DHT22;516;51.482;7.120;2024-02-23T20:18:33;15.70;1.00
1055;DHT22;516;51.482;7.120;2024-02-23T20:24:20;15.70;1.00
1055;DHT22;516;51.482;7.120;2024-02-23T20:30:09;15.70;1.00
1055;DHT22;516;51.482;7.120;2024-02-23T20:35:57;15.60;1.00
1055;DHT22;516;51.482;7.120;2024-02-23T20:41:44;15.70;1.00
1055;DHT22;516;51.482;7.120;2024-02-23T20:47:32;15.70;1.00
1055;DHT22;516;51.482;7.120;2024-02-23T20:53:20;15.70;1.00
1055;DHT22;516;51.482;7.120;2024-02-23T20:59:08;15.60;1.00
1055;DHT22;516;51.482;7.120;2024-02-23T21:04:55;15.60;1.00
1055;DHT22;516;51.482;7.120;2024-02-23T21:10:44;15.70;1.00
1055;DHT22;516;51.482;7.120;2024-02-23T21:16:32;15.60;1.00
1055;DHT22;516;51.482;7.120;2024-02-23T21:22:19;15.60;1.00
1055;DHT22;516;51.482;7.120;2024-02-23T21:28:07;15.70;1.00
1055;DHT22;516;51.482;7.120;2024-02-23T21:33:58;15.60;1.00
1055;DHT22;516;51.482;7.120;2024-02-23T21:39:45;15.60;1.00
1055;DHT22;516;51.482;7.120;2024-02-23T21:45:33;15.70;1.00
1055;DHT22;516;51.482;7.120;2024-02-23T21:51:21;15.70;1.00
1055;DHT22;516;51.482;7.120;2024-02-23T21:57:09;15.60;1.00
1055;DHT22;516;51.482;7.120;2024-02-23T22:02:56;15.60;1.00
1055;DHT22;516;51.482;7.120;2024-02-23T22:12:46;15.60;1.00
1055;DHT22;516;51.482;7.120;2024-02-23T22:18:34;15.60;1.00
1055;DHT22;516;51.482;7.120;2024-02-23T22:24:21;15.60;1.00
1055;DHT22;516;51.482;7.120;2024-02-23T22:30:11;15.60;1.00
1055;DHT22;516;51.482;7.120;2024-02-23T22:35:59;15.60;1.00
1055;DHT22;516;51.482;7.120;2024-02-23T22:41:47;15.60;1.00
1055;DHT22;516;51.482;7.120;2024-02-23T22:47:35;15.60;1.00
1055;DHT22;516;51.482;7.120;2024-02-23T22:53:23;15.60;1.00
1055;DHT22;516;51.482;7.120;2024-02-23T22:59:10;15.60;1.00
1055;DHT22;516;51.482;7.120;2024-02-23T23:04:58;15.60;1.00
1055;DHT22;516;51.482;7.120;2024-02-23T23:10:46;15.60;1.00
1055;DHT22;516;51.482;7.120;2024-02-23T23:19:50;15.60;1.00
1055;DHT22;516;51.482;7.120;2024-02-23T23:25:38;15.60;1.00
1055;DHT22;516;51.482;7.120;2024-02-23T23:31:25;15.60;1.00
1055;DHT22;516;51.482;7.120;2024-02-23T23:37:15;15.60;1.00
1055;DHT22;516;51.482;7.120;2024-02-23T23:43:03;15.60;1.00
1055;DHT22;516;51.482;7.120;2024-02-23T23:48:33;15.60;1.00
1055;DHT22;516;51.482;7.120;2024-02-23T23:54:02;15.60;1.00
1055;DHT22;516;51.482;7.120;2024-02-23T23:59:50;15.60;1.00
